sensor_id;sensor_type;location;lat;lon;timestamp;pressure;altitude;pressure_sealevel;temperature;humidity
50682;BME280;36779;52.168;20.878;2024-02-21T00:01:52;100937.96;;;3.26;76.66
50682;BME280;36779;52.168;20.878;2024-02-21T00:04:25;100937.86;;;3.31;76.79
50682;BME280;36779;52.168;20.878;2024-02-21T00:07:06;100938.38;;;3.33;76.73
50682;BME280;36779;52.168;20.878;2024-02-21T00:09:38;100934.89;;;3.36;76.83
50682;BME280;36779;52.168;20.878;2024-02-21T00:12:14;100933.86;;;3.38;76.77
50682;BME280;36779;52.168;20.878;2024-02-21T00:14:46;100934.33;;;3.42;76.83
50682;BME280;36779;52.168;20.878;2024-02-21T00:17:19;100933.80;;;3.44;76.77
50682;BME280;36779;52.168;20.878;2024-02-21T00:19:53;100932.00;;;3.47;76.87
50682;BME280;36779;52.168;20.878;2024-02-21T00:22:26;100932.05;;;3.49;76.75
50682;BME280;36779;52.168;20.878;2024-02-21T00:25:00;100926.98;;;3.51;76.84
50682;BME280;36779;52.168;20.878;2024-02-21T00:27:36;100925.26;;;3.53;76.91
50682;BME280;36779;52.168;20.878;2024-02-21T00:30:11;100922.90;;;3.57;76.85
50682;BME280;36779;52.168;20.878;2024-02-21T00:32:43;100921.85;;;3.60;76.90
50682;BME280;36779;52.168;20.878;2024-02-21T00:35:18;100923.57;;;3.63;76.84
50682;BME280;36779;52.168;20.878;2024-02-21T00:37:55;100918.65;;;3.66;76.83
50682;BME280;36779;52.168;20.878;2024-02-21T00:40:32;100919.33;;;3.68;76.92
50682;BME280;36779;52.168;20.878;2024-02-21T00:43:06;100915.59;;;3.71;76.90
50682;BME280;36779;52.168;20.878;2024-02-21T00:45:44;100916.58;;;3.75;76.91
50682;BME280;36779;52.168;20.878;2024-02-21T00:48:16;100919.05;;;3.77;76.89
50682;BME280;36779;52.168;20.878;2024-02-21T00:50:49;100916.27;;;3.82;76.87
50682;BME280;36779;52.168;20.878;2024-02-21T00:53:21;100915.66;;;3.86;76.93
50682;BME280;36779;52.168;20.878;2024-02-21T00:55:55;100915.59;;;3.87;76.92
50682;BME280;36779;52.168;20.878;2024-02-21T00:58:36;100913.25;;;3.90;77.01
50682;BME280;36779;52.168;20.878;2024-02-21T01:01:22;100907.51;;;3.92;76.91
50682;BME280;36779;52.168;20.878;2024-02-21T01:03:59;100906.20;;;3.93;76.83
50682;BME280;36779;52.168;20.878;2024-02-21T01:06:32;100901.30;;;3.95;76.96
50682;BME280;36779;52.168;20.878;2024-02-21T01:09:05;100901.15;;;3.97;76.94
50682;BME280;36779;52.168;20.878;2024-02-21T01:11:38;100901.43;;;4.01;77.01
50682;BME280;36779;52.168;20.878;2024-02-21T01:14:10;100899.67;;;4.04;77.01
50682;BME280;36779;52.168;20.878;2024-02-21T01:16:45;100897.41;;;4.03;76.86
50682;BME280;36779;52.168;20.878;2024-02-21T01:19:18;100893.20;;;4.06;77.00
50682;BME280;36779;52.168;20.878;2024-02-21T01:21:53;100887.89;;;4.09;77.00
50682;BME280;36779;52.168;20.878;2024-02-21T01:24:30;100886.66;;;4.11;77.08
50682;BME280;36779;52.168;20.878;2024-02-21T01:27:06;100888.40;;;4.14;77.09
50682;BME280;36779;52.168;20.878;2024-02-21T01:29:42;100888.27;;;4.15;77.10
50682;BME280;36779;52.168;20.878;2024-02-21T01:32:18;100885.73;;;4.17;77.10
50682;BME280;36779;52.168;20.878;2024-02-21T01:34:51;100887.92;;;4.18;77.13
50682;BME280;36779;52.168;20.878;2024-02-21T01:37:24;100887.50;;;4.19;77.10
50682;BME280;36779;52.168;20.878;2024-02-21T01:39:56;100885.03;;;4.21;77.09
50682;BME280;36779;52.168;20.878;2024-02-21T01:42:29;100880.73;;;4.25;77.15
50682;BME280;36779;52.168;20.878;2024-02-21T01:45:06;100881.50;;;4.26;77.16
50682;BME280;36779;52.168;20.878;2024-02-21T01:47:40;100879.89;;;4.27;77.12
50682;BME280;36779;52.168;20.878;2024-02-21T01:50:13;100877.68;;;4.28;77.13
50682;BME280;36779;52.168;20.878;2024-02-21T01:52:49;100875.52;;;4.29;77.09
50682;BME280;36779;52.168;20.878;2024-02-21T01:55:25;100874.73;;;4.30;77.09
50682;BME280;36779;52.168;20.878;2024-02-21T01:58:00;100875.77;;;4.30;77.08
50682;BME280;36779;52.168;20.878;2024-02-21T02:00:39;100875.37;;;4.31;77.10
50682;BME280;36779;52.168;20.878;2024-02-21T02:03:20;100879.91;;;4.32;77.06
50682;BME280;36779;52.168;20.878;2024-02-21T02:05:55;100881.90;;;4.31;77.09
50682;BME280;36779;52.168;20.878;2024-02-21T02:08:33;100876.52;;;4.30;77.17
50682;BME280;36779;52.168;20.878;2024-02-21T02:11:10;100873.41;;;4.31;77.20
50682;BME280;36779;52.168;20.878;2024-02-21T02:13:48;100871.98;;;4.34;77.20
50682;BME280;36779;52.168;20.878;2024-02-21T02:16:21;100865.59;;;4.35;77.15
50682;BME280;36779;52.168;20.878;2024-02-21T02:18:53;100865.58;;;4.35;77.11
50682;BME280;36779;52.168;20.878;2024-02-21T02:21:31;100860.30;;;4.35;77.14
50682;BME280;36779;52.168;20.878;2024-02-21T02:24:03;100865.21;;;4.38;77.20
50682;BME280;36779;52.168;20.878;2024-02-21T02:26:41;100866.04;;;4.38;77.15
50682;BME280;36779;52.168;20.878;2024-02-21T02:29:16;100861.39;;;4.37;77.15
50682;BME280;36779;52.168;20.878;2024-02-21T02:31:50;100860.66;;;4.37;77.14
50682;BME280;36779;52.168;20.878;2024-02-21T02:34:23;100861.94;;;4.39;77.25
50682;BME280;36779;52.168;20.878;2024-02-21T02:36:59;100854.15;;;4.40;77.27
50682;BME280;36779;52.168;20.878;2024-02-21T02:39:31;100855.52;;;4.40;77.22
50682;BME280;36779;52.168;20.878;2024-02-21T02:42:04;100855.38;;;4.40;77.14
50682;BME280;36779;52.168;20.878;2024-02-21T02:44:46;100856.84;;;4.41;77.16
50682;BME280;36779;52.168;20.878;2024-02-21T02:47:19;100856.55;;;4.43;77.19
50682;BME280;36779;52.168;20.878;2024-02-21T02:49:52;100857.98;;;4.42;77.13
50682;BME280;36779;52.168;20.878;2024-02-21T02:52:25;100853.23;;;4.43;77.22
50682;BME280;36779;52.168;20.878;2024-02-21T02:54:58;100854.12;;;4.45;77.32
50682;BME280;36779;52.168;20.878;2024-02-21T02:57:30;100850.79;;;4.47;77.31
50682;BME280;36779;52.168;20.878;2024-02-21T03:00:05;100850.40;;;4.47;77.18
50682;BME280;36779;52.168;20.878;2024-02-21T03:02:39;100846.95;;;4.44;77.14
50682;BME280;36779;52.168;20.878;2024-02-21T03:05:25;100847.81;;;4.42;77.07
50682;BME280;36779;52.168;20.878;2024-02-21T03:07:59;100848.34;;;4.40;77.04
50682;BME280;36779;52.168;20.878;2024-02-21T03:10:39;100855.31;;;4.36;77.04
50682;BME280;36779;52.168;20.878;2024-02-21T03:13:16;100854.60;;;4.36;77.10
50682;BME280;36779;52.168;20.878;2024-02-21T03:15:51;100855.80;;;4.36;77.08
50682;BME280;36779;52.168;20.878;2024-02-21T03:18:23;100855.33;;;4.35;77.20
50682;BME280;36779;52.168;20.878;2024-02-21T03:20:56;100853.49;;;4.36;77.11
50682;BME280;36779;52.168;20.878;2024-02-21T03:23:31;100852.55;;;4.35;77.07
50682;BME280;36779;52.168;20.878;2024-02-21T03:26:07;100852.75;;;4.35;77.18
50682;BME280;36779;52.168;20.878;2024-02-21T03:28:41;100848.14;;;4.33;77.19
50682;BME280;36779;52.168;20.878;2024-02-21T03:31:16;100847.25;;;4.35;77.25
50682;BME280;36779;52.168;20.878;2024-02-21T03:33:49;100852.15;;;4.36;77.21
50682;BME280;36779;52.168;20.878;2024-02-21T03:36:22;100846.08;;;4.35;77.22
50682;BME280;36779;52.168;20.878;2024-02-21T03:38:55;100842.55;;;4.35;77.22
50682;BME280;36779;52.168;20.878;2024-02-21T03:41:32;100844.16;;;4.34;77.26
50682;BME280;36779;52.168;20.878;2024-02-21T03:44:05;100848.48;;;4.35;77.25
50682;BME280;36779;52.168;20.878;2024-02-21T03:46:38;100844.61;;;4.35;77.23
50682;BME280;36779;52.168;20.878;2024-02-21T03:49:11;100851.08;;;4.34;77.17
50682;BME280;36779;52.168;20.878;2024-02-21T03:51:45;100850.98;;;4.35;77.18
50682;BME280;36779;52.168;20.878;2024-02-21T03:54:19;100855.13;;;4.36;77.28
50682;BME280;36779;52.168;20.878;2024-02-21T03:56:51;100852.91;;;4.37;77.29
50682;BME280;36779;52.168;20.878;2024-02-21T03:59:25;100848.69;;;4.37;77.25
50682;BME280;36779;52.168;20.878;2024-02-21T04:02:00;100841.30;;;4.40;77.40
50682;BME280;36779;52.168;20.878;2024-02-21T04:04:37;100842.70;;;4.42;77.52
50682;BME280;36779;52.168;20.878;2024-02-21T04:07:22;100843.34;;;4.43;77.44
50682;BME280;36779;52.168;20.878;2024-02-21T04:09:59;100842.86;;;4.43;77.38
50682;BME280;36779;52.168;20.878;2024-02-21T04:12:33;100842.69;;;4.42;77.44
50682;BME280;36779;52.168;20.878;2024-02-21T04:15:15;100843.14;;;4.46;77.53
50682;BME280;36779;52.168;20.878;2024-02-21T04:17:49;100836.89;;;4.47;77.45
50682;BME280;36779;52.168;20.878;2024-02-21T04:20:28;100828.25;;;4.47;77.38
50682;BME280;36779;52.168;20.878;2024-02-21T04:23:01;100825.39;;;4.48;77.44
50682;BME280;36779;52.168;20.878;2024-02-21T04:25:34;100825.54;;;4.48;77.46
50682;BME280;36779;52.168;20.878;2024-02-21T04:28:09;100822.41;;;4.47;77.40
50682;BME280;36779;52.168;20.878;2024-02-21T04:30:43;100820.45;;;4.48;77.52
50682;BME280;36779;52.168;20.878;2024-02-21T04:33:17;100821.30;;;4.46;77.38
50682;BME280;36779;52.168;20.878;2024-02-21T04:35:51;100817.84;;;4.45;77.42
50682;BME280;36779;52.168;20.878;2024-02-21T04:38:28;100819.40;;;4.43;77.39
50682;BME280;36779;52.168;20.878;2024-02-21T04:41:04;100816.08;;;4.43;77.41
50682;BME280;36779;52.168;20.878;2024-02-21T04:43:36;100814.77;;;4.44;77.45
50682;BME280;36779;52.168;20.878;2024-02-21T04:49:44;100817.58;;;4.47;77.49
50682;BME280;36779;52.168;20.878;2024-02-21T04:52:20;100817.71;;;4.49;77.51
50682;BME280;36779;52.168;20.878;2024-02-21T04:54:52;100815.30;;;4.51;77.53
50682;BME280;36779;52.168;20.878;2024-02-21T04:57:27;100817.70;;;4.52;77.46
50682;BME280;36779;52.168;20.878;2024-02-21T05:00:00;100824.42;;;4.52;77.41
50682;BME280;36779;52.168;20.878;2024-02-21T05:02:36;100822.62;;;4.52;77.54
50682;BME280;36779;52.168;20.878;2024-02-21T05:05:10;100823.98;;;4.53;77.47
50682;BME280;36779;52.168;20.878;2024-02-21T05:07:44;100820.76;;;4.51;77.50
50682;BME280;36779;52.168;20.878;2024-02-21T05:10:18;100815.58;;;4.50;77.47
50682;BME280;36779;52.168;20.878;2024-02-21T05:12:53;100819.08;;;4.50;77.47
50682;BME280;36779;52.168;20.878;2024-02-21T05:15:28;100813.55;;;4.51;77.49
50682;BME280;36779;52.168;20.878;2024-02-21T05:18:05;100812.45;;;4.52;77.50
50682;BME280;36779;52.168;20.878;2024-02-21T05:20:38;100811.10;;;4.51;77.62
50682;BME280;36779;52.168;20.878;2024-02-21T05:23:17;100812.55;;;4.51;77.52
50682;BME280;36779;52.168;20.878;2024-02-21T05:26:10;100813.64;;;4.50;77.46
50682;BME280;36779;52.168;20.878;2024-02-21T05:28:45;100812.27;;;4.49;77.48
50682;BME280;36779;52.168;20.878;2024-02-21T05:31:19;100809.06;;;4.50;77.51
50682;BME280;36779;52.168;20.878;2024-02-21T05:33:58;100810.29;;;4.53;77.54
50682;BME280;36779;52.168;20.878;2024-02-21T05:36:41;100809.14;;;4.54;77.50
50682;BME280;36779;52.168;20.878;2024-02-21T05:39:14;100813.11;;;4.55;77.56
50682;BME280;36779;52.168;20.878;2024-02-21T05:41:47;100805.38;;;4.55;77.50
50682;BME280;36779;52.168;20.878;2024-02-21T05:44:25;100796.48;;;4.54;77.49
50682;BME280;36779;52.168;20.878;2024-02-21T05:47:01;100793.77;;;4.55;77.57
50682;BME280;36779;52.168;20.878;2024-02-21T05:49:42;100790.31;;;4.56;77.60
50682;BME280;36779;52.168;20.878;2024-02-21T05:52:17;100790.15;;;4.58;77.64
50682;BME280;36779;52.168;20.878;2024-02-21T05:54:51;100790.52;;;4.60;77.66
50682;BME280;36779;52.168;20.878;2024-02-21T05:57:26;100783.95;;;4.61;77.68
50682;BME280;36779;52.168;20.878;2024-02-21T06:00:02;100783.24;;;4.63;77.67
50682;BME280;36779;52.168;20.878;2024-02-21T06:02:42;100789.17;;;4.64;77.55
50682;BME280;36779;52.168;20.878;2024-02-21T06:05:17;100793.21;;;4.64;77.68
50682;BME280;36779;52.168;20.878;2024-02-21T06:07:55;100790.83;;;4.65;77.61
50682;BME280;36779;52.168;20.878;2024-02-21T06:10:30;100791.04;;;4.67;77.63
50682;BME280;36779;52.168;20.878;2024-02-21T06:13:06;100788.16;;;4.68;77.54
50682;BME280;36779;52.168;20.878;2024-02-21T06:15:42;100789.67;;;4.69;77.63
50682;BME280;36779;52.168;20.878;2024-02-21T06:18:20;100794.62;;;4.71;77.58
50682;BME280;36779;52.168;20.878;2024-02-21T06:20:56;100791.86;;;4.76;77.74
50682;BME280;36779;52.168;20.878;2024-02-21T06:23:29;100790.81;;;4.80;77.72
50682;BME280;36779;52.168;20.878;2024-02-21T06:26:14;100790.48;;;4.84;77.69
50682;BME280;36779;52.168;20.878;2024-02-21T06:28:50;100789.39;;;4.87;77.73
50682;BME280;36779;52.168;20.878;2024-02-21T06:31:23;100792.11;;;4.88;77.66
50682;BME280;36779;52.168;20.878;2024-02-21T06:33:59;100795.02;;;4.92;77.76
50682;BME280;36779;52.168;20.878;2024-02-21T06:36:35;100797.45;;;4.97;77.76
50682;BME280;36779;52.168;20.878;2024-02-21T06:39:08;100796.42;;;5.01;77.72
50682;BME280;36779;52.168;20.878;2024-02-21T06:41:49;100794.17;;;5.05;77.70
50682;BME280;36779;52.168;20.878;2024-02-21T06:44:22;100793.38;;;5.09;77.81
50682;BME280;36779;52.168;20.878;2024-02-21T06:46:59;100798.73;;;5.12;77.67
50682;BME280;36779;52.168;20.878;2024-02-21T06:49:35;100797.52;;;5.14;77.74
50682;BME280;36779;52.168;20.878;2024-02-21T06:52:08;100798.63;;;5.18;77.74
50682;BME280;36779;52.168;20.878;2024-02-21T06:54:51;100798.73;;;5.22;77.87
50682;BME280;36779;52.168;20.878;2024-02-21T06:57:31;100802.30;;;5.26;77.78
50682;BME280;36779;52.168;20.878;2024-02-21T07:00:04;100803.46;;;5.29;77.71
50682;BME280;36779;52.168;20.878;2024-02-21T07:02:40;100803.30;;;5.29;77.65
50682;BME280;36779;52.168;20.878;2024-02-21T07:05:13;100801.34;;;5.31;77.64
50682;BME280;36779;52.168;20.878;2024-02-21T07:07:47;100799.91;;;5.34;77.84
50682;BME280;36779;52.168;20.878;2024-02-21T07:10:22;100797.31;;;5.38;77.80
50682;BME280;36779;52.168;20.878;2024-02-21T07:13:03;100798.73;;;5.40;77.65
50682;BME280;36779;52.168;20.878;2024-02-21T07:15:37;100796.86;;;5.44;77.73
50682;BME280;36779;52.168;20.878;2024-02-21T07:18:09;100797.88;;;5.47;77.80
50682;BME280;36779;52.168;20.878;2024-02-21T07:20:42;100798.24;;;5.51;77.78
50682;BME280;36779;52.168;20.878;2024-02-21T07:23:16;100793.48;;;5.56;77.81
50682;BME280;36779;52.168;20.878;2024-02-21T07:25:48;100795.23;;;5.60;77.79
50682;BME280;36779;52.168;20.878;2024-02-21T07:28:26;100789.84;;;5.64;77.84
50682;BME280;36779;52.168;20.878;2024-02-21T07:31:04;100788.39;;;5.66;77.74
50682;BME280;36779;52.168;20.878;2024-02-21T07:33:38;100785.47;;;5.68;77.71
50682;BME280;36779;52.168;20.878;2024-02-21T07:36:15;100785.52;;;5.69;77.63
50682;BME280;36779;52.168;20.878;2024-02-21T07:38:48;100780.84;;;5.71;77.74
50682;BME280;36779;52.168;20.878;2024-02-21T07:41:22;100778.64;;;5.72;77.73
50682;BME280;36779;52.168;20.878;2024-02-21T07:43:57;100775.15;;;5.73;77.82
50682;BME280;36779;52.168;20.878;2024-02-21T07:46:31;100767.98;;;5.75;77.81
50682;BME280;36779;52.168;20.878;2024-02-21T07:49:21;100762.55;;;5.79;77.78
50682;BME280;36779;52.168;20.878;2024-02-21T07:51:54;100760.28;;;5.85;77.89
50682;BME280;36779;52.168;20.878;2024-02-21T07:54:27;100755.63;;;5.90;77.90
50682;BME280;36779;52.168;20.878;2024-02-21T07:57:00;100751.12;;;5.96;77.93
50682;BME280;36779;52.168;20.878;2024-02-21T07:59:33;100744.70;;;6.04;77.99
50682;BME280;36779;52.168;20.878;2024-02-21T08:02:06;100738.73;;;6.08;77.83
50682;BME280;36779;52.168;20.878;2024-02-21T08:04:39;100740.13;;;6.14;77.90
50682;BME280;36779;52.168;20.878;2024-02-21T08:07:12;100727.70;;;6.22;77.92
50682;BME280;36779;52.168;20.878;2024-02-21T08:09:46;100728.34;;;6.27;77.95
50682;BME280;36779;52.168;20.878;2024-02-21T08:12:18;100727.91;;;6.32;77.96
50682;BME280;36779;52.168;20.878;2024-02-21T08:14:51;100724.55;;;6.37;77.86
50682;BME280;36779;52.168;20.878;2024-02-21T08:17:25;100724.86;;;6.43;77.75
50682;BME280;36779;52.168;20.878;2024-02-21T08:19:58;100725.16;;;6.50;77.85
50682;BME280;36779;52.168;20.878;2024-02-21T08:22:33;100720.55;;;6.57;77.86
50682;BME280;36779;52.168;20.878;2024-02-21T08:25:06;100722.81;;;6.64;77.91
50682;BME280;36779;52.168;20.878;2024-02-21T08:27:40;100721.95;;;6.68;77.92
50682;BME280;36779;52.168;20.878;2024-02-21T08:30:18;100724.41;;;6.70;77.69
50682;BME280;36779;52.168;20.878;2024-02-21T08:32:51;100718.65;;;6.71;77.70
50682;BME280;36779;52.168;20.878;2024-02-21T08:35:25;100716.91;;;6.75;77.99
50682;BME280;36779;52.168;20.878;2024-02-21T08:37:58;100716.39;;;6.79;77.86
50682;BME280;36779;52.168;20.878;2024-02-21T08:40:30;100716.80;;;6.81;77.84
50682;BME280;36779;52.168;20.878;2024-02-21T08:43:03;100711.32;;;6.89;77.96
50682;BME280;36779;52.168;20.878;2024-02-21T08:45:35;100710.00;;;7.02;78.19
50682;BME280;36779;52.168;20.878;2024-02-21T08:48:11;100712.85;;;7.14;78.11
50682;BME280;36779;52.168;20.878;2024-02-21T08:50:47;100714.30;;;7.26;78.14
50682;BME280;36779;52.168;20.878;2024-02-21T08:53:19;100713.89;;;7.31;77.88
50682;BME280;36779;52.168;20.878;2024-02-21T08:55:52;100710.23;;;7.37;78.00
50682;BME280;36779;52.168;20.878;2024-02-21T08:58:24;100707.73;;;7.43;77.87
50682;BME280;36779;52.168;20.878;2024-02-21T09:00:58;100701.16;;;7.47;77.76
50682;BME280;36779;52.168;20.878;2024-02-21T09:03:32;100697.52;;;7.51;77.88
50682;BME280;36779;52.168;20.878;2024-02-21T09:06:05;100695.73;;;7.55;77.88
50682;BME280;36779;52.168;20.878;2024-02-21T09:08:38;100694.02;;;7.58;77.84
50682;BME280;36779;52.168;20.878;2024-02-21T09:11:11;100695.14;;;7.62;77.86
50682;BME280;36779;52.168;20.878;2024-02-21T09:13:44;100695.64;;;7.60;77.70
50682;BME280;36779;52.168;20.878;2024-02-21T09:16:21;100690.60;;;7.55;77.63
50682;BME280;36779;52.168;20.878;2024-02-21T09:19:14;100688.82;;;7.53;77.56
50682;BME280;36779;52.168;20.878;2024-02-21T09:21:55;100690.10;;;7.54;77.71
50682;BME280;36779;52.168;20.878;2024-02-21T09:24:32;100690.43;;;7.54;77.61
50682;BME280;36779;52.168;20.878;2024-02-21T09:27:05;100692.46;;;7.54;77.64
50682;BME280;36779;52.168;20.878;2024-02-21T09:29:41;100692.88;;;7.53;77.59
50682;BME280;36779;52.168;20.878;2024-02-21T09:32:20;100689.58;;;7.52;77.63
50682;BME280;36779;52.168;20.878;2024-02-21T09:35:00;100686.36;;;7.52;77.61
50682;BME280;36779;52.168;20.878;2024-02-21T09:37:41;100688.66;;;7.51;77.55
50682;BME280;36779;52.168;20.878;2024-02-21T09:40:31;100687.20;;;7.49;77.56
50682;BME280;36779;52.168;20.878;2024-02-21T09:43:05;100685.39;;;7.52;77.65
50682;BME280;36779;52.168;20.878;2024-02-21T09:46:03;100689.41;;;7.54;77.66
50682;BME280;36779;52.168;20.878;2024-02-21T09:49:03;100682.67;;;7.58;77.67
50682;BME280;36779;52.168;20.878;2024-02-21T09:51:46;100680.95;;;7.62;77.61
50682;BME280;36779;52.168;20.878;2024-02-21T09:54:23;100676.91;;;7.65;77.65
50682;BME280;36779;52.168;20.878;2024-02-21T09:57:07;100675.41;;;7.68;77.75
50682;BME280;36779;52.168;20.878;2024-02-21T09:59:41;100672.06;;;7.72;77.70
50682;BME280;36779;52.168;20.878;2024-02-21T10:02:16;100671.07;;;7.77;77.62
50682;BME280;36779;52.168;20.878;2024-02-21T10:04:50;100666.92;;;7.85;77.69
50682;BME280;36779;52.168;20.878;2024-02-21T10:07:26;100660.95;;;7.90;77.65
50682;BME280;36779;52.168;20.878;2024-02-21T10:10:05;100662.77;;;7.91;77.55
50682;BME280;36779;52.168;20.878;2024-02-21T10:12:52;100654.31;;;7.91;77.51
50682;BME280;36779;52.168;20.878;2024-02-21T10:15:32;100653.98;;;7.91;77.42
50682;BME280;36779;52.168;20.878;2024-02-21T10:18:06;100652.70;;;7.89;77.58
50682;BME280;36779;52.168;20.878;2024-02-21T10:20:41;100651.45;;;7.87;77.54
50682;BME280;36779;52.168;20.878;2024-02-21T10:23:20;100648.34;;;7.86;77.46
50682;BME280;36779;52.168;20.878;2024-02-21T10:26:07;100643.95;;;7.86;77.53
50682;BME280;36779;52.168;20.878;2024-02-21T10:28:47;100641.95;;;7.90;77.67
50682;BME280;36779;52.168;20.878;2024-02-21T10:31:31;100643.59;;;7.93;77.52
50682;BME280;36779;52.168;20.878;2024-02-21T10:34:24;100641.77;;;7.98;77.62
50682;BME280;36779;52.168;20.878;2024-02-21T10:37:15;100640.36;;;8.02;77.58
50682;BME280;36779;52.168;20.878;2024-02-21T10:39:50;100639.86;;;8.06;77.54
50682;BME280;36779;52.168;20.878;2024-02-21T10:42:30;100638.64;;;8.10;77.59
50682;BME280;36779;52.168;20.878;2024-02-21T10:45:08;100634.75;;;8.11;77.57
50682;BME280;36779;52.168;20.878;2024-02-21T10:47:52;100631.77;;;8.11;77.38
50682;BME280;36779;52.168;20.878;2024-02-21T10:50:30;100629.23;;;8.08;77.37
50682;BME280;36779;52.168;20.878;2024-02-21T10:53:09;100628.88;;;8.08;77.50
50682;BME280;36779;52.168;20.878;2024-02-21T10:55:55;100625.40;;;8.13;77.45
50682;BME280;36779;52.168;20.878;2024-02-21T10:58:30;100627.42;;;8.20;77.48
50682;BME280;36779;52.168;20.878;2024-02-21T11:01:06;100620.46;;;8.20;77.40
50682;BME280;36779;52.168;20.878;2024-02-21T11:03:42;100614.74;;;8.19;77.34
50682;BME280;36779;52.168;20.878;2024-02-21T11:06:19;100609.48;;;8.16;77.28
50682;BME280;36779;52.168;20.878;2024-02-21T11:09:04;100605.17;;;8.15;77.23
50682;BME280;36779;52.168;20.878;2024-02-21T11:11:40;100601.36;;;8.14;77.27
50682;BME280;36779;52.168;20.878;2024-02-21T11:14:21;100594.25;;;8.11;77.23
50682;BME280;36779;52.168;20.878;2024-02-21T11:16:56;100595.40;;;8.10;77.37
50682;BME280;36779;52.168;20.878;2024-02-21T11:19:29;100595.64;;;8.09;77.25
50682;BME280;36779;52.168;20.878;2024-02-21T11:22:03;100592.30;;;8.05;77.19
50682;BME280;36779;52.168;20.878;2024-02-21T11:24:48;100589.39;;;7.98;77.09
50682;BME280;36779;52.168;20.878;2024-02-21T11:27:22;100582.40;;;7.91;77.23
50682;BME280;36779;52.168;20.878;2024-02-21T11:29:57;100577.48;;;7.89;77.19
50682;BME280;36779;52.168;20.878;2024-02-21T11:32:32;100573.41;;;7.87;77.22
50682;BME280;36779;52.168;20.878;2024-02-21T11:35:05;100571.85;;;7.83;77.06
50682;BME280;36779;52.168;20.878;2024-02-21T11:37:39;100574.50;;;7.79;77.10
50682;BME280;36779;52.168;20.878;2024-02-21T11:40:14;100573.48;;;7.76;77.22
50682;BME280;36779;52.168;20.878;2024-02-21T11:42:48;100572.79;;;7.73;77.15
50682;BME280;36779;52.168;20.878;2024-02-21T11:45:26;100578.59;;;7.67;77.14
50682;BME280;36779;52.168;20.878;2024-02-21T11:48:00;100571.41;;;7.61;77.00
50682;BME280;36779;52.168;20.878;2024-02-21T11:50:38;100571.84;;;7.54;77.04
50682;BME280;36779;52.168;20.878;2024-02-21T11:53:11;100567.69;;;7.49;77.05
50682;BME280;36779;52.168;20.878;2024-02-21T11:55:47;100566.30;;;7.45;77.12
50682;BME280;36779;52.168;20.878;2024-02-21T11:58:20;100565.73;;;7.41;77.11
50682;BME280;36779;52.168;20.878;2024-02-21T12:00:53;100562.26;;;7.39;77.07
50682;BME280;36779;52.168;20.878;2024-02-21T12:03:26;100560.89;;;7.38;77.18
50682;BME280;36779;52.168;20.878;2024-02-21T12:06:01;100555.59;;;7.38;77.32
50682;BME280;36779;52.168;20.878;2024-02-21T12:08:43;100550.56;;;7.41;77.37
50682;BME280;36779;52.168;20.878;2024-02-21T12:11:22;100547.46;;;7.42;77.21
50682;BME280;36779;52.168;20.878;2024-02-21T12:14:03;100546.91;;;7.40;77.11
50682;BME280;36779;52.168;20.878;2024-02-21T12:19:21;100544.92;;;7.35;77.19
50682;BME280;36779;52.168;20.878;2024-02-21T12:21:55;100544.11;;;7.34;77.11
50682;BME280;36779;52.168;20.878;2024-02-21T12:24:30;100539.61;;;7.33;77.20
50682;BME280;36779;52.168;20.878;2024-02-21T12:27:02;100538.05;;;7.30;77.31
50682;BME280;36779;52.168;20.878;2024-02-21T12:29:34;100540.50;;;7.30;77.29
50682;BME280;36779;52.168;20.878;2024-02-21T12:32:07;100538.30;;;7.29;77.25
50682;BME280;36779;52.168;20.878;2024-02-21T12:34:39;100536.23;;;7.27;77.24
50682;BME280;36779;52.168;20.878;2024-02-21T12:37:25;100531.42;;;7.25;77.24
50682;BME280;36779;52.168;20.878;2024-02-21T12:39:57;100530.64;;;7.24;77.18
50682;BME280;36779;52.168;20.878;2024-02-21T12:42:30;100525.30;;;7.23;77.24
50682;BME280;36779;52.168;20.878;2024-02-21T12:45:03;100520.11;;;7.21;77.31
50682;BME280;36779;52.168;20.878;2024-02-21T12:47:36;100519.33;;;7.22;77.25
50682;BME280;36779;52.168;20.878;2024-02-21T12:50:10;100514.44;;;7.21;77.29
50682;BME280;36779;52.168;20.878;2024-02-21T12:52:50;100511.05;;;7.20;77.31
50682;BME280;36779;52.168;20.878;2024-02-21T12:55:26;100507.29;;;7.18;77.20
50682;BME280;36779;52.168;20.878;2024-02-21T12:58:04;100501.84;;;7.16;77.29
50682;BME280;36779;52.168;20.878;2024-02-21T13:00:39;100501.67;;;7.16;77.32
50682;BME280;36779;52.168;20.878;2024-02-21T13:03:15;100500.51;;;7.15;77.28
50682;BME280;36779;52.168;20.878;2024-02-21T13:05:50;100501.65;;;7.14;77.36
50682;BME280;36779;52.168;20.878;2024-02-21T13:08:24;100499.98;;;7.13;77.31
50682;BME280;36779;52.168;20.878;2024-02-21T13:10:56;100498.20;;;7.14;77.17
50682;BME280;36779;52.168;20.878;2024-02-21T13:13:29;100491.47;;;7.14;77.37
50682;BME280;36779;52.168;20.878;2024-02-21T13:16:02;100491.13;;;7.15;77.31
50682;BME280;36779;52.168;20.878;2024-02-21T13:18:36;100491.31;;;7.17;77.40
50682;BME280;36779;52.168;20.878;2024-02-21T13:21:10;100487.34;;;7.18;77.38
50682;BME280;36779;52.168;20.878;2024-02-21T13:23:43;100483.72;;;7.17;77.31
50682;BME280;36779;52.168;20.878;2024-02-21T13:26:16;100482.02;;;7.17;77.32
50682;BME280;36779;52.168;20.878;2024-02-21T13:28:52;100475.02;;;7.16;77.29
50682;BME280;36779;52.168;20.878;2024-02-21T13:31:26;100468.67;;;7.14;77.33
50682;BME280;36779;52.168;20.878;2024-02-21T13:34:15;100466.39;;;7.14;77.35
50682;BME280;36779;52.168;20.878;2024-02-21T13:37:02;100459.76;;;7.11;77.42
50682;BME280;36779;52.168;20.878;2024-02-21T13:39:38;100454.84;;;7.08;77.38
50682;BME280;36779;52.168;20.878;2024-02-21T13:42:11;100451.98;;;7.07;77.29